createdAt,value
2017-06-05T00:02:26.102Z,15.50
2017-06-05T00:04:53.634Z,15.70
2017-06-05T00:07:21.140Z,15.70
2017-06-05T00:09:48.653Z,15.80
2017-06-05T00:12:16.177Z,16.00
2017-06-05T00:14:43.703Z,16.20
2017-06-05T00:17:11.233Z,16.20
2017-06-05T00:19:38.767Z,16.20
2017-06-05T00:22:06.279Z,16.20
2017-06-05T00:24:33.804Z,15.80
2017-06-05T00:27:02.073Z,15.40
2017-06-05T00:29:29.607Z,15.40
2017-06-05T00:31:57.123Z,15.30
2017-06-05T00:34:24.629Z,15.50
2017-06-05T00:36:52.153Z,15.60
2017-06-05T00:39:19.649Z,15.70
2017-06-05T00:41:47.186Z,15.70
2017-06-05T00:44:14.692Z,15.50
2017-06-05T00:46:42.192Z,15.10
2017-06-05T00:49:09.700Z,15.00
2017-06-05T00:51:37.205Z,14.90
2017-06-05T00:54:04.992Z,14.80
2017-06-05T00:56:32.524Z,15.10
2017-06-05T00:59:00.024Z,15.20
2017-06-05T01:01:27.532Z,15.10
2017-06-05T01:03:55.032Z,15.10
2017-06-05T01:06:22.562Z,15.20
2017-06-05T01:08:50.083Z,15.40
2017-06-05T01:11:17.593Z,15.70
2017-06-05T01:13:45.141Z,15.80
2017-06-05T01:16:12.662Z,15.50
2017-06-05T01:18:40.969Z,15.50
2017-06-05T01:21:08.468Z,15.50
2017-06-05T01:23:35.990Z,15.70
2017-06-05T01:26:03.516Z,15.80
2017-06-05T01:28:31.033Z,15.70
2017-06-05T01:30:58.675Z,15.90
2017-06-05T01:33:26.169Z,16.00
2017-06-05T01:35:53.676Z,16.00
2017-06-05T01:38:21.201Z,16.00
2017-06-05T01:40:48.708Z,16.10
2017-06-05T01:43:16.249Z,16.20
2017-06-05T01:45:43.756Z,16.20
2017-06-05T01:48:11.258Z,16.20
2017-06-05T01:50:38.774Z,16.30
2017-06-05T01:53:06.285Z,16.20
2017-06-05T01:55:34.729Z,16.20
2017-06-05T01:58:02.224Z,16.10
2017-06-05T02:00:29.714Z,16.30
2017-06-05T02:02:57.227Z,16.10
2017-06-05T02:05:24.733Z,16.00
2017-06-05T02:07:52.260Z,16.00
2017-06-05T02:10:19.765Z,16.10
2017-06-05T02:12:47.266Z,16.10
2017-06-05T02:15:14.791Z,16.10
2017-06-05T02:17:42.298Z,16.00
2017-06-05T02:20:10.072Z,16.10
2017-06-05T02:22:37.583Z,16.20
2017-06-05T02:25:05.081Z,16.20
2017-06-05T02:27:32.602Z,16.10
2017-06-05T02:30:00.096Z,16.20
2017-06-05T02:32:27.616Z,16.20
2017-06-05T02:34:55.114Z,16.20
2017-06-05T02:37:22.609Z,16.20
2017-06-05T02:39:50.121Z,16.20
2017-06-05T02:42:17.617Z,16.20
2017-06-05T02:44:45.183Z,16.20
2017-06-05T02:47:12.684Z,16.20
2017-06-05T02:49:40.191Z,16.30
2017-06-05T02:52:07.714Z,16.40
2017-06-05T02:54:35.214Z,16.30
2017-06-05T02:57:02.986Z,16.20
2017-06-05T02:59:30.522Z,16.30
2017-06-05T03:01:58.024Z,16.30
2017-06-05T03:04:25.547Z,16.00
2017-06-05T03:06:53.052Z,16.00
2017-06-05T03:09:20.786Z,16.10
2017-06-05T03:11:48.294Z,16.20
2017-06-05T03:14:15.808Z,16.10
2017-06-05T03:16:43.313Z,16.40
2017-06-05T03:19:10.812Z,16.30
2017-06-05T03:21:38.636Z,16.40
2017-06-05T03:24:06.137Z,16.10
2017-06-05T03:26:33.632Z,16.10
2017-06-05T03:29:01.145Z,16.40
2017-06-05T03:31:28.646Z,16.30
2017-06-05T03:33:56.445Z,16.20
2017-06-05T03:36:23.950Z,15.90
2017-06-05T03:38:51.461Z,16.10
2017-06-05T03:41:18.984Z,16.10
2017-06-05T03:43:46.489Z,16.20
2017-06-05T03:46:14.229Z,16.10
2017-06-05T03:48:41.738Z,16.10
2017-06-05T03:51:09.247Z,16.10
2017-06-05T03:53:36.772Z,16.10
2017-06-05T03:56:04.264Z,16.30
2017-06-05T03:58:31.996Z,16.40
2017-06-05T04:00:59.489Z,16.60
2017-06-05T04:03:27.008Z,16.90
2017-06-05T04:05:54.499Z,16.40
2017-06-05T04:08:22.022Z,16.70
2017-06-05T04:10:49.522Z,16.80
2017-06-05T04:13:17.266Z,16.70
2017-06-05T04:15:44.769Z,16.60
2017-06-05T04:18:12.269Z,16.40
2017-06-05T04:20:40.076Z,16.70
2017-06-05T04:23:07.576Z,16.70
2017-06-05T04:25:35.088Z,16.70
2017-06-05T04:28:02.609Z,16.60
2017-06-05T04:30:30.096Z,16.50
2017-06-05T04:32:57.865Z,16.60
2017-06-05T04:35:25.364Z,16.90
2017-06-05T04:37:53.635Z,16.40
2017-06-05T04:40:21.153Z,16.40
2017-06-05T04:42:48.662Z,16.30
2017-06-05T04:45:16.406Z,16.40
2017-06-05T04:47:43.913Z,16.80
2017-06-05T04:50:11.407Z,17.20
2017-06-05T04:52:38.921Z,17.10
2017-06-05T04:55:06.426Z,17.10
2017-06-05T04:57:34.145Z,16.90
2017-06-05T05:00:01.651Z,16.60
2017-06-05T05:02:29.161Z,16.80
2017-06-05T05:04:56.687Z,16.90
2017-06-05T05:07:24.189Z,17.20
2017-06-05T05:09:52.117Z,17.40
2017-06-05T05:12:19.617Z,17.50
2017-06-05T05:14:47.162Z,17.70
2017-06-05T05:17:14.678Z,18.20
2017-06-05T05:19:42.193Z,18.30
2017-06-05T05:22:10.003Z,18.60
2017-06-05T05:24:37.512Z,18.60
2017-06-05T05:27:05.014Z,18.50
2017-06-05T05:29:32.532Z,18.40
2017-06-05T05:32:00.037Z,18.00
2017-06-05T05:34:27.748Z,18.10
2017-06-05T05:36:55.273Z,18.10
2017-06-05T05:39:22.772Z,18.40
2017-06-05T05:41:50.301Z,18.10
2017-06-05T05:44:17.797Z,18.10
2017-06-05T05:46:45.536Z,18.10
2017-06-05T05:49:13.045Z,18.00
2017-06-05T05:51:40.568Z,17.80
2017-06-05T05:54:08.873Z,18.10
2017-06-05T05:56:36.399Z,18.10
2017-06-05T05:59:04.155Z,18.30
2017-06-05T06:01:31.653Z,18.40
2017-06-05T06:03:59.156Z,18.50
2017-06-05T06:06:26.670Z,18.50
2017-06-05T06:08:54.177Z,18.70
2017-06-05T06:11:21.905Z,18.80
2017-06-05T06:13:49.413Z,19.30
2017-06-05T06:16:16.917Z,19.60
2017-06-05T06:18:44.429Z,19.70
2017-06-05T06:21:11.940Z,20.00
2017-06-05T06:23:39.693Z,20.00
2017-06-05T06:26:07.190Z,20.00
2017-06-05T06:28:34.705Z,19.90
2017-06-05T06:31:02.232Z,19.90
2017-06-05T06:33:29.742Z,19.80
2017-06-05T06:35:57.492Z,20.50
2017-06-05T06:38:25.010Z,20.90
2017-06-05T06:40:52.513Z,21.40
2017-06-05T06:43:20.028Z,20.70
2017-06-05T06:45:47.516Z,20.60
2017-06-05T06:48:15.263Z,20.90
2017-06-05T06:50:43.534Z,22.40
2017-06-05T06:53:11.041Z,22.40
2017-06-05T06:55:38.554Z,21.40
2017-06-05T06:58:06.076Z,21.80
2017-06-05T07:00:33.969Z,22.30
2017-06-05T07:03:01.461Z,22.80
2017-06-05T07:05:28.970Z,21.60
2017-06-05T07:07:56.476Z,22.70
2017-06-05T07:10:23.986Z,22.30
2017-06-05T07:12:51.773Z,24.30
2017-06-05T07:15:19.277Z,25.80
2017-06-05T07:17:46.800Z,26.80
2017-06-05T07:20:14.335Z,28.20
2017-06-05T07:22:41.837Z,28.00
2017-06-05T07:25:09.569Z,28.80
2017-06-05T07:27:37.087Z,28.00
2017-06-05T07:30:04.597Z,27.20
2017-06-05T07:32:32.122Z,28.40
2017-06-05T07:34:59.629Z,28.50
2017-06-05T07:37:27.359Z,27.90
2017-06-05T07:39:54.848Z,28.20
2017-06-05T07:42:22.355Z,28.70
2017-06-05T07:44:49.963Z,28.40
2017-06-05T07:47:17.466Z,31.40
2017-06-05T07:49:45.276Z,31.20
2017-06-05T07:52:12.799Z,26.30
2017-06-05T07:54:40.313Z,28.10
2017-06-05T07:57:07.837Z,27.80
2017-06-05T07:59:35.367Z,26.10
2017-06-05T08:02:03.093Z,28.00
2017-06-05T08:04:30.897Z,27.90
2017-06-05T08:06:58.380Z,29.90
2017-06-05T08:09:25.892Z,32.10
2017-06-05T08:11:53.393Z,32.70
2017-06-05T08:14:21.144Z,32.20
2017-06-05T08:16:48.659Z,32.50
2017-06-05T08:19:16.164Z,32.40
2017-06-05T08:21:43.691Z,34.40
2017-06-05T08:24:11.209Z,31.70
2017-06-05T08:26:38.953Z,30.00
2017-06-05T08:29:06.473Z,30.40
2017-06-05T08:31:34.725Z,30.20
2017-06-05T08:34:02.238Z,30.20
2017-06-05T08:36:29.753Z,28.70
2017-06-05T08:38:57.489Z,27.70
2017-06-05T08:41:28.835Z,28.50
2017-06-05T08:43:56.441Z,29.80
2017-06-05T08:46:24.841Z,30.00
2017-06-05T08:48:53.186Z,32.10
2017-06-05T08:51:21.938Z,35.10
2017-06-05T08:53:49.489Z,33.70
2017-06-05T08:56:18.049Z,34.80
2017-06-05T08:58:45.606Z,34.40
2017-06-05T09:01:13.167Z,33.80
2017-06-05T09:03:40.981Z,32.30
2017-06-05T09:06:08.556Z,33.70
2017-06-05T09:08:38.546Z,34.80
2017-06-05T09:11:06.963Z,36.30
2017-06-05T09:13:34.550Z,38.70
2017-06-05T09:16:03.278Z,37.50
2017-06-05T09:18:31.571Z,36.90
2017-06-05T09:20:59.118Z,36.90
2017-06-05T09:23:26.680Z,31.80
2017-06-05T09:25:54.297Z,33.20
2017-06-05T09:28:23.858Z,33.90
2017-06-05T09:30:53.813Z,36.50
2017-06-05T09:33:21.363Z,31.20
2017-06-05T09:35:49.703Z,31.70
2017-06-05T09:38:17.273Z,31.80
2017-06-05T09:40:45.046Z,33.20
2017-06-05T09:43:12.603Z,32.50
2017-06-05T09:45:41.125Z,36.70
2017-06-05T09:48:08.658Z,37.50
2017-06-05T09:50:36.373Z,35.50
2017-06-05T09:53:05.169Z,36.30
2017-06-05T09:55:32.753Z,34.90
2017-06-05T09:58:00.341Z,36.50
2017-06-05T10:00:27.934Z,34.50
2017-06-05T10:02:55.585Z,36.60
2017-06-05T10:05:23.520Z,28.50
2017-06-05T10:07:51.110Z,32.80
2017-06-05T10:10:19.689Z,36.10
2017-06-05T10:12:47.569Z,34.90
2017-06-05T10:15:15.246Z,34.60
2017-06-05T10:17:43.162Z,35.20
2017-06-05T10:20:10.728Z,38.20
2017-06-05T10:22:38.337Z,38.50
2017-06-05T10:25:06.912Z,36.50
2017-06-05T10:27:34.652Z,36.80
2017-06-05T10:30:03.493Z,39.10
2017-06-05T10:32:31.697Z,39.10
2017-06-05T10:35:01.029Z,38.10
2017-06-05T10:37:28.656Z,37.30
2017-06-05T10:39:57.019Z,40.30
2017-06-05T10:42:24.805Z,40.40
2017-06-05T10:44:54.689Z,37.60
2017-06-05T10:47:23.256Z,36.10
2017-06-05T10:49:51.399Z,36.70
2017-06-05T10:52:19.055Z,37.40
2017-06-05T10:54:46.879Z,36.20
2017-06-05T10:57:14.436Z,37.00
2017-06-05T11:02:34.897Z,37.80
2017-06-05T11:05:02.494Z,38.10
2017-06-05T11:07:30.280Z,35.20
2017-06-05T11:09:57.841Z,38.50
2017-06-05T11:12:25.383Z,30.60
2017-06-05T11:14:52.949Z,27.80
2017-06-05T11:17:20.497Z,33.40
2017-06-05T11:19:48.278Z,35.30
2017-06-05T11:22:15.827Z,38.00
2017-06-05T11:24:43.755Z,40.30
2017-06-05T11:27:11.293Z,39.50
2017-06-05T11:29:38.821Z,39.90
2017-06-05T11:32:06.599Z,41.60
2017-06-05T11:34:34.211Z,37.80
2017-06-05T11:37:01.805Z,36.50
2017-06-05T11:39:29.365Z,33.80
2017-06-05T11:41:57.574Z,36.60
2017-06-05T11:44:26.351Z,34.30
2017-06-05T11:46:53.897Z,32.20
2017-06-05T11:49:21.514Z,33.40
2017-06-05T11:51:49.185Z,32.80
2017-06-05T11:54:16.827Z,31.80
2017-06-05T11:56:44.611Z,31.30
2017-06-05T11:59:12.139Z,29.50
2017-06-05T12:01:39.649Z,28.90
2017-06-05T12:04:07.204Z,30.90
2017-06-05T12:06:34.721Z,33.40
2017-06-05T12:09:02.556Z,32.10
2017-06-05T12:11:30.593Z,31.40
2017-06-05T12:13:58.097Z,31.00
2017-06-05T12:16:25.617Z,29.70
2017-06-05T12:18:53.157Z,27.60
2017-06-05T12:21:20.894Z,29.30
2017-06-05T12:23:48.440Z,29.60
2017-06-05T12:26:15.958Z,30.90
2017-06-05T12:28:43.489Z,30.30
2017-06-05T12:31:10.991Z,33.10
2017-06-05T12:33:38.738Z,35.50
2017-06-05T12:36:06.239Z,32.00
2017-06-05T12:38:33.730Z,37.70
2017-06-05T12:41:01.244Z,38.60
2017-06-05T12:43:28.756Z,36.50
2017-06-05T12:45:56.609Z,33.00
2017-06-05T12:48:24.112Z,37.50
2017-06-05T12:50:51.653Z,39.00
2017-06-05T12:53:19.191Z,38.80
2017-06-05T12:55:46.688Z,36.60
2017-06-05T12:58:14.192Z,35.60
2017-06-05T13:00:41.979Z,32.30
2017-06-05T13:03:09.473Z,30.00
2017-06-05T13:05:36.984Z,33.00
2017-06-05T13:08:04.515Z,35.20
2017-06-05T13:10:32.017Z,34.50
2017-06-05T13:12:59.856Z,34.30
2017-06-05T13:15:27.357Z,35.10
2017-06-05T13:17:54.851Z,34.30
2017-06-05T13:20:22.390Z,31.00
2017-06-05T13:22:49.938Z,31.80
2017-06-05T13:25:17.721Z,32.40
2017-06-05T13:27:45.226Z,31.40
2017-06-05T13:30:12.748Z,30.00
2017-06-05T13:32:40.259Z,30.60
2017-06-05T13:35:07.769Z,31.60
2017-06-05T13:37:35.528Z,30.30
2017-06-05T13:40:03.052Z,30.40
2017-06-05T13:42:30.566Z,30.70
2017-06-05T13:44:58.116Z,30.90
2017-06-05T13:47:25.616Z,32.50
2017-06-05T13:49:53.388Z,34.80
2017-06-05T13:52:20.887Z,33.40
2017-06-05T13:54:48.404Z,33.20
2017-06-05T13:57:15.938Z,33.20
2017-06-05T13:59:43.451Z,35.20
2017-06-05T14:02:11.904Z,36.50
2017-06-05T14:04:39.413Z,35.10
2017-06-05T14:07:06.937Z,32.00
2017-06-05T14:09:34.449Z,29.70
2017-06-05T14:12:01.962Z,27.60
2017-06-05T14:14:29.700Z,28.50
2017-06-05T14:16:57.209Z,28.20
2017-06-05T14:19:24.708Z,28.70
2017-06-05T14:21:52.218Z,27.50
2017-06-05T14:24:19.718Z,27.60
2017-06-05T14:26:47.479Z,29.00
2017-06-05T14:29:14.990Z,28.60
2017-06-05T14:31:42.485Z,29.90
2017-06-05T14:34:10.046Z,30.00
2017-06-05T14:36:37.542Z,30.20
2017-06-05T14:39:05.266Z,32.10
2017-06-05T14:41:32.864Z,28.80
2017-06-05T14:44:00.382Z,28.10
2017-06-05T14:46:27.901Z,26.80
2017-06-05T14:48:55.399Z,27.40
2017-06-05T14:51:23.137Z,27.60
2017-06-05T14:53:50.645Z,27.00
2017-06-05T14:56:18.144Z,28.50
2017-06-05T14:58:45.669Z,28.70
2017-06-05T15:01:13.180Z,28.70
2017-06-05T15:03:40.928Z,27.40
2017-06-05T15:06:08.448Z,28.10
2017-06-05T15:08:35.965Z,27.20
2017-06-05T15:11:03.505Z,27.40
2017-06-05T15:13:31.031Z,26.40
2017-06-05T15:15:58.767Z,26.00
2017-06-05T15:18:27.035Z,25.30
2017-06-05T15:20:54.559Z,25.30
2017-06-05T15:23:22.097Z,25.80
2017-06-05T15:25:49.623Z,26.00
2017-06-05T15:28:17.365Z,25.60
2017-06-05T15:30:44.873Z,26.10
2017-06-05T15:33:12.388Z,25.00
2017-06-05T15:35:39.896Z,24.70
2017-06-05T15:38:07.419Z,24.70
2017-06-05T15:40:35.176Z,24.50
2017-06-05T15:43:03.462Z,24.50
2017-06-05T15:45:30.981Z,24.50
2017-06-05T15:47:58.514Z,25.10
2017-06-05T15:50:26.027Z,24.60
2017-06-05T15:52:53.780Z,24.30
2017-06-05T15:55:21.301Z,24.10
2017-06-05T15:57:48.815Z,24.40
2017-06-05T16:00:16.333Z,24.70
2017-06-05T16:02:43.825Z,23.60
2017-06-05T16:05:11.700Z,24.00
2017-06-05T16:07:39.230Z,24.70
2017-06-05T16:10:06.757Z,24.30
2017-06-05T16:12:34.270Z,24.50
2017-06-05T16:15:01.801Z,23.80
2017-06-05T16:17:29.545Z,24.00
2017-06-05T16:19:57.053Z,24.10
2017-06-05T16:22:24.565Z,24.10
2017-06-05T16:24:52.068Z,23.80
2017-06-05T16:27:19.590Z,21.70
2017-06-05T16:29:47.340Z,20.60
2017-06-05T16:32:14.859Z,19.90
2017-06-05T16:34:42.371Z,18.80
2017-06-05T16:37:09.913Z,18.10
2017-06-05T16:39:37.425Z,17.50
2017-06-05T16:42:05.167Z,16.70
2017-06-05T16:44:32.693Z,16.20
2017-06-05T16:47:00.210Z,16.60
2017-06-05T16:49:27.732Z,16.50
2017-06-05T16:51:55.261Z,16.40
2017-06-05T16:54:23.037Z,16.30
2017-06-05T16:56:50.556Z,16.20
2017-06-05T16:59:18.072Z,15.80
2017-06-05T17:01:45.610Z,16.00
2017-06-05T17:04:13.121Z,16.00
2017-06-05T17:06:40.847Z,16.20
2017-06-05T17:09:08.367Z,16.20
2017-06-05T17:11:35.880Z,16.60
2017-06-05T17:14:03.425Z,16.70
2017-06-05T17:16:30.958Z,16.90
2017-06-05T17:18:59.492Z,16.70
2017-06-05T17:21:26.998Z,16.70
2017-06-05T17:23:54.543Z,16.80
2017-06-05T17:26:22.937Z,16.70
2017-06-05T17:28:50.484Z,16.80
2017-06-05T17:31:18.228Z,16.90
2017-06-05T17:33:45.745Z,16.90
2017-06-05T17:36:13.257Z,16.60
2017-06-05T17:38:40.785Z,16.30
2017-06-05T17:41:08.300Z,16.30
2017-06-05T17:43:36.949Z,16.50
2017-06-05T17:46:04.472Z,16.80
2017-06-05T17:48:32.001Z,16.90
2017-06-05T17:50:59.521Z,17.10
2017-06-05T17:53:27.041Z,17.30
2017-06-05T17:55:54.793Z,17.40
2017-06-05T17:58:22.314Z,17.20
2017-06-05T18:00:49.837Z,17.30
2017-06-05T18:03:17.387Z,17.50
2017-06-05T18:05:45.679Z,17.10
2017-06-05T18:08:13.436Z,17.10
2017-06-05T18:10:40.957Z,17.50
2017-06-05T18:13:08.500Z,17.70
2017-06-05T18:15:36.052Z,17.90
2017-06-05T18:18:03.564Z,17.80
2017-06-05T18:20:31.326Z,17.90
2017-06-05T18:22:59.612Z,17.80
2017-06-05T18:25:27.881Z,18.00
2017-06-05T18:27:55.430Z,18.00
2017-06-05T18:30:23.737Z,17.90
2017-06-05T18:32:51.541Z,17.90
2017-06-05T18:35:19.062Z,17.90
2017-06-05T18:37:46.597Z,17.80
2017-06-05T18:40:14.882Z,17.50
2017-06-05T18:42:42.409Z,17.40
2017-06-05T18:45:10.178Z,17.30
2017-06-05T18:47:37.682Z,17.30
2017-06-05T18:50:05.213Z,17.30
2017-06-05T18:52:32.769Z,17.20
2017-06-05T18:55:00.292Z,17.00
2017-06-05T18:57:28.236Z,17.20
2017-06-05T18:59:55.764Z,17.20
2017-06-05T19:02:23.306Z,17.10
2017-06-05T19:04:50.865Z,16.90
2017-06-05T19:07:18.385Z,16.70
2017-06-05T19:09:46.143Z,16.70
2017-06-05T19:12:13.671Z,16.70
2017-06-05T19:14:41.202Z,16.70
2017-06-05T19:17:08.745Z,16.60
2017-06-05T19:19:36.297Z,16.40
2017-06-05T19:22:03.801Z,16.60
2017-06-05T19:24:31.595Z,16.50
2017-06-05T19:26:59.126Z,16.40
2017-06-05T19:29:26.645Z,16.20
2017-06-05T19:31:54.403Z,16.50
2017-06-05T19:34:21.937Z,16.30
2017-06-05T19:36:49.527Z,16.20
2017-06-05T19:39:17.043Z,16.20
2017-06-05T19:41:44.583Z,16.20
2017-06-05T19:44:12.357Z,16.20
2017-06-05T19:46:39.881Z,16.10
2017-06-05T19:49:07.410Z,16.10
2017-06-05T19:51:34.940Z,16.10
2017-06-05T19:54:02.477Z,16.20
2017-06-05T19:56:30.230Z,16.10
2017-06-05T19:58:57.774Z,16.00
2017-06-05T20:01:25.298Z,16.00
2017-06-05T20:03:52.834Z,15.80
2017-06-05T20:06:20.417Z,15.70
2017-06-05T20:08:49.106Z,15.90
2017-06-05T20:11:17.419Z,15.80
2017-06-05T20:13:44.947Z,15.80
2017-06-05T20:16:12.479Z,15.80
2017-06-05T20:18:40.033Z,15.90
2017-06-05T20:21:07.836Z,15.70
2017-06-05T20:23:35.423Z,15.70
2017-06-05T20:26:02.983Z,15.50
2017-06-05T20:28:30.540Z,15.50
2017-06-05T20:30:58.083Z,15.50
2017-06-05T20:33:25.843Z,15.50
2017-06-05T20:35:53.350Z,15.50
2017-06-05T20:38:20.883Z,15.40
2017-06-05T20:40:49.030Z,15.50
2017-06-05T20:43:17.340Z,15.20
2017-06-05T20:45:45.148Z,15.20
2017-06-05T20:48:12.702Z,15.20
2017-06-05T20:50:40.277Z,15.30
2017-06-05T20:53:07.895Z,15.00
2017-06-05T20:55:35.421Z,15.00
2017-06-05T20:58:04.115Z,15.40
2017-06-05T21:00:31.655Z,15.40
2017-06-05T21:02:59.216Z,15.40
2017-06-05T21:05:27.517Z,15.50
2017-06-05T21:07:55.073Z,15.50
2017-06-05T21:10:23.614Z,15.40
2017-06-05T21:12:51.136Z,15.40
2017-06-05T21:15:18.689Z,15.60
2017-06-05T21:17:46.239Z,15.70
2017-06-05T21:20:13.823Z,15.50
2017-06-05T21:22:41.804Z,15.50
2017-06-05T21:25:09.924Z,15.50
2017-06-05T21:27:37.460Z,15.50
2017-06-05T21:30:05.023Z,15.30
2017-06-05T21:32:32.590Z,15.30
2017-06-05T21:35:00.465Z,15.40
2017-06-05T21:37:27.988Z,15.50
2017-06-05T21:39:55.550Z,15.80
2017-06-05T21:42:23.112Z,16.10
2017-06-05T21:44:50.624Z,16.20
2017-06-05T21:47:19.322Z,16.30
2017-06-05T21:49:46.833Z,16.30
2017-06-05T21:52:14.358Z,16.20
2017-06-05T21:54:41.893Z,16.30
2017-06-05T21:57:41.984Z,16.10
2017-06-05T22:00:09.875Z,15.70
2017-06-05T22:02:38.157Z,15.30
2017-06-05T22:05:06.442Z,15.40
2017-06-05T22:07:34.728Z,15.50
2017-06-05T22:10:02.251Z,15.50
2017-06-05T22:12:30.011Z,15.50
2017-06-05T22:14:57.519Z,15.40
2017-06-05T22:17:25.057Z,15.50
2017-06-05T22:19:53.356Z,15.60
2017-06-05T22:22:20.877Z,15.50
2017-06-05T22:24:48.607Z,15.40
2017-06-05T22:27:16.117Z,15.60
2017-06-05T22:29:44.482Z,15.60
2017-06-05T22:32:12.010Z,15.60
2017-06-05T22:34:39.531Z,15.60
2017-06-05T22:37:07.256Z,15.70
2017-06-05T22:39:34.774Z,15.70
2017-06-05T22:42:02.283Z,15.60
2017-06-05T22:44:29.819Z,15.60
2017-06-05T22:46:57.330Z,15.60
2017-06-05T22:49:25.090Z,15.70
2017-06-05T22:51:52.631Z,15.80
2017-06-05T22:54:20.902Z,15.80
2017-06-05T22:56:48.438Z,15.80
2017-06-05T22:59:16.173Z,15.80
2017-06-05T23:01:44.028Z,15.60
2017-06-05T23:04:11.533Z,15.60
2017-06-05T23:06:39.037Z,15.60
2017-06-05T23:09:06.562Z,15.70
2017-06-05T23:11:34.092Z,15.70
2017-06-05T23:14:01.828Z,15.80
2017-06-05T23:16:29.510Z,15.80
2017-06-05T23:18:57.023Z,15.70
2017-06-05T23:21:24.549Z,15.60
2017-06-05T23:23:52.053Z,15.70
2017-06-05T23:26:20.747Z,15.80
2017-06-05T23:28:49.021Z,15.80
2017-06-05T23:31:17.297Z,15.70
2017-06-05T23:33:44.840Z,15.70
2017-06-05T23:36:12.381Z,15.70
2017-06-05T23:38:40.129Z,15.80
2017-06-05T23:41:07.633Z,15.80
2017-06-05T23:43:35.130Z,15.90
2017-06-05T23:46:02.648Z,15.80
2017-06-05T23:48:30.961Z,15.80
2017-06-05T23:50:58.696Z,15.80
2017-06-05T23:53:26.972Z,15.90
2017-06-05T23:55:55.249Z,15.80
2017-06-05T23:58:23.580Z,15.70
